createdAt,value
2018-07-09T00:00:09.555Z,2.90
2018-07-09T00:01:09.595Z,2.40
2018-07-09T00:02:09.632Z,2.60
2018-07-09T00:03:09.670Z,2.50
2018-07-09T00:04:09.708Z,2.40
2018-07-09T00:05:09.746Z,3.10
2018-07-09T00:06:09.805Z,2.90
2018-07-09T00:07:09.821Z,2.80
2018-07-09T00:08:09.860Z,2.70
2018-07-09T00:09:09.897Z,2.50
2018-07-09T00:10:09.939Z,2.40
2018-07-09T00:11:09.982Z,2.50
2018-07-09T00:12:10.011Z,3.00
2018-07-09T00:13:10.050Z,2.60
2018-07-09T00:14:10.089Z,2.70
2018-07-09T00:15:10.125Z,2.80
2018-07-09T00:16:10.162Z,2.90
2018-07-09T00:17:10.200Z,2.90
2018-07-09T00:18:10.237Z,2.90
2018-07-09T00:19:10.274Z,2.60
2018-07-09T00:20:10.314Z,2.60
2018-07-09T00:21:10.353Z,2.80
2018-07-09T00:22:10.392Z,2.80
2018-07-09T00:23:10.428Z,2.90
2018-07-09T00:24:10.465Z,3.10
2018-07-09T00:25:10.505Z,3.20
2018-07-09T00:26:10.540Z,2.90
2018-07-09T00:27:10.579Z,3.20
2018-07-09T00:28:10.616Z,3.00
2018-07-09T00:29:10.660Z,2.90
2018-07-09T00:30:10.691Z,3.10
2018-07-09T00:31:10.730Z,3.00
2018-07-09T00:32:10.781Z,2.80
2018-07-09T00:33:10.806Z,3.10
2018-07-09T00:34:10.844Z,2.90
2018-07-09T00:35:10.882Z,3.10
2018-07-09T00:36:10.917Z,2.70
2018-07-09T00:37:10.964Z,3.00
2018-07-09T00:38:10.994Z,3.00
2018-07-09T00:39:11.032Z,2.70
2018-07-09T00:40:11.071Z,3.00
2018-07-09T00:41:11.112Z,3.20
2018-07-09T00:42:11.148Z,3.00
2018-07-09T00:43:11.183Z,3.20
2018-07-09T00:44:11.219Z,3.70
2018-07-09T00:45:11.258Z,3.20
2018-07-09T00:46:11.295Z,2.90
2018-07-09T00:47:11.331Z,3.10
2018-07-09T00:48:11.373Z,3.10
2018-07-09T00:49:11.407Z,3.10
2018-07-09T00:50:11.444Z,3.20
2018-07-09T00:51:11.484Z,3.20
2018-07-09T00:52:11.523Z,3.00
2018-07-09T00:53:11.558Z,3.10
2018-07-09T00:54:11.595Z,3.10
2018-07-09T00:55:11.632Z,2.90
2018-07-09T00:56:11.670Z,3.40
2018-07-09T00:57:11.708Z,3.00
2018-07-09T00:58:11.746Z,3.00
2018-07-09T00:59:11.783Z,3.30
2018-07-09T01:00:11.821Z,3.00
2018-07-09T01:01:11.859Z,3.20
2018-07-09T01:02:11.903Z,3.00
2018-07-09T01:03:11.936Z,3.00
2018-07-09T01:04:11.980Z,2.80
2018-07-09T01:05:12.008Z,3.20
2018-07-09T01:06:12.045Z,3.20
2018-07-09T01:07:12.084Z,3.00
2018-07-09T01:08:12.121Z,3.40
2018-07-09T01:09:12.166Z,3.30
2018-07-09T01:10:12.194Z,3.30
2018-07-09T01:11:12.334Z,3.10
2018-07-09T01:12:12.270Z,3.30
2018-07-09T01:13:12.307Z,3.50
2018-07-09T01:14:12.343Z,3.20
2018-07-09T01:15:12.383Z,3.50
2018-07-09T01:16:12.419Z,3.30
2018-07-09T01:17:12.455Z,3.00
2018-07-09T01:18:12.492Z,3.30
2018-07-09T01:19:12.537Z,3.20
2018-07-09T01:20:12.571Z,3.30
2018-07-09T01:21:12.607Z,3.30
2018-07-09T01:22:12.644Z,3.20
2018-07-09T01:23:12.681Z,3.30
2018-07-09T01:24:12.717Z,3.20
2018-07-09T01:25:12.755Z,3.30
2018-07-09T01:26:12.798Z,3.30
2018-07-09T01:27:12.829Z,3.70
2018-07-09T01:28:12.869Z,3.40
2018-07-09T01:29:12.904Z,3.50
2018-07-09T01:30:12.940Z,3.00
2018-07-09T01:31:12.978Z,3.80
2018-07-09T01:32:13.015Z,3.60
2018-07-09T01:33:13.053Z,3.40
2018-07-09T01:34:13.091Z,3.30
2018-07-09T01:35:13.126Z,3.40
2018-07-09T01:36:13.168Z,3.20
2018-07-09T01:37:13.202Z,3.40
2018-07-09T01:38:13.239Z,3.50
2018-07-09T01:39:13.280Z,3.60
2018-07-09T01:40:13.312Z,3.70
2018-07-09T01:41:13.350Z,3.60
2018-07-09T01:42:13.386Z,3.30
2018-07-09T01:43:13.425Z,3.60
2018-07-09T01:44:13.461Z,3.80
2018-07-09T01:45:13.500Z,3.70
2018-07-09T01:46:13.535Z,3.90
2018-07-09T01:47:13.572Z,3.70
2018-07-09T01:48:13.611Z,3.90
2018-07-09T01:49:13.647Z,4.10
2018-07-09T01:50:13.687Z,3.50
2018-07-09T01:51:13.721Z,3.80
2018-07-09T01:52:13.757Z,3.70
2018-07-09T01:53:13.794Z,3.70
2018-07-09T01:54:13.831Z,3.60
2018-07-09T01:55:13.871Z,3.90
2018-07-09T01:56:13.905Z,3.60
2018-07-09T01:57:13.944Z,3.60
2018-07-09T01:58:13.981Z,3.30
2018-07-09T01:59:14.022Z,3.40
2018-07-09T02:00:14.063Z,3.30
2018-07-09T02:01:14.092Z,3.40
2018-07-09T02:02:14.129Z,3.50
2018-07-09T02:03:14.166Z,3.50
2018-07-09T02:04:14.203Z,3.50
2018-07-09T02:05:14.241Z,3.50
2018-07-09T02:06:14.277Z,4.10
2018-07-09T02:07:14.355Z,3.80
2018-07-09T02:08:14.351Z,3.70
2018-07-09T02:09:14.388Z,3.80
2018-07-09T02:10:14.432Z,3.40
2018-07-09T02:11:14.461Z,3.60
2018-07-09T02:12:14.503Z,3.70
2018-07-09T02:13:14.536Z,3.60
2018-07-09T02:14:14.572Z,3.80
2018-07-09T02:15:14.610Z,3.40
2018-07-09T02:16:14.647Z,3.50
2018-07-09T02:17:14.683Z,3.60
2018-07-09T02:18:14.719Z,3.50
2018-07-09T02:19:14.757Z,3.60
2018-07-09T02:20:14.794Z,3.40
2018-07-09T02:21:14.830Z,3.50
2018-07-09T02:22:14.872Z,3.30
2018-07-09T02:23:14.904Z,3.40
2018-07-09T02:24:14.942Z,3.70
2018-07-09T02:25:14.978Z,3.80
2018-07-09T02:26:15.015Z,3.80
2018-07-09T02:27:15.051Z,3.40
2018-07-09T02:28:15.089Z,3.80
2018-07-09T02:29:15.129Z,4.10
2018-07-09T02:30:15.161Z,4.20
2018-07-09T02:31:15.211Z,3.80
2018-07-09T02:32:15.239Z,3.70
2018-07-09T02:33:15.286Z,4.00
2018-07-09T02:34:15.311Z,3.70
2018-07-09T02:35:15.348Z,3.70
2018-07-09T02:36:15.387Z,3.90
2018-07-09T02:37:15.420Z,3.70
2018-07-09T02:38:15.457Z,3.80
2018-07-09T02:39:15.495Z,3.90
2018-07-09T02:40:15.533Z,3.90
2018-07-09T02:41:15.570Z,4.00
2018-07-09T02:42:15.605Z,3.80
2018-07-09T02:43:15.640Z,3.80
2018-07-09T02:44:15.683Z,3.80
2018-07-09T02:45:15.715Z,3.60
2018-07-09T02:46:15.752Z,3.60
2018-07-09T02:47:15.787Z,3.60
2018-07-09T02:48:15.825Z,3.90
2018-07-09T02:49:15.928Z,3.80
2018-07-09T02:50:15.897Z,3.80
2018-07-09T02:51:15.934Z,3.50
2018-07-09T02:52:15.972Z,3.70
2018-07-09T02:53:16.011Z,3.80
2018-07-09T02:54:16.045Z,4.00
2018-07-09T02:55:16.114Z,3.90
2018-07-09T02:56:16.125Z,3.70
2018-07-09T02:57:16.154Z,3.80
2018-07-09T02:58:16.192Z,3.80
2018-07-09T02:59:16.227Z,3.70
2018-07-09T03:00:16.264Z,4.00
2018-07-09T03:01:16.320Z,4.00
2018-07-09T03:02:16.338Z,4.10
2018-07-09T03:03:16.374Z,3.90
2018-07-09T03:04:16.411Z,3.90
2018-07-09T03:05:16.457Z,3.80
2018-07-09T03:06:16.485Z,4.00
2018-07-09T03:07:16.522Z,3.90
2018-07-09T03:08:16.557Z,4.20
2018-07-09T03:09:16.596Z,4.20
2018-07-09T03:10:16.631Z,4.10
2018-07-09T03:11:16.676Z,4.10
2018-07-09T03:12:16.705Z,4.40
2018-07-09T03:13:16.742Z,4.00
2018-07-09T03:14:16.790Z,4.20
2018-07-09T03:15:16.813Z,4.10
2018-07-09T03:16:16.852Z,4.00
2018-07-09T03:17:16.889Z,4.30
2018-07-09T03:18:16.934Z,4.00
2018-07-09T03:19:16.961Z,4.20
2018-07-09T03:20:16.998Z,4.60
2018-07-09T03:21:17.034Z,4.20
2018-07-09T03:22:17.071Z,4.30
2018-07-09T03:23:17.107Z,4.10
2018-07-09T03:24:17.144Z,4.30
2018-07-09T03:25:17.179Z,4.20
2018-07-09T03:26:17.216Z,4.10
2018-07-09T03:27:17.253Z,4.30
2018-07-09T03:28:17.288Z,4.00
2018-07-09T03:29:17.326Z,4.10
2018-07-09T03:30:17.366Z,4.30
2018-07-09T03:31:17.397Z,4.10
2018-07-09T03:32:17.435Z,4.10
2018-07-09T03:33:17.487Z,4.30
2018-07-09T03:34:17.508Z,4.60
2018-07-09T03:35:17.552Z,4.20
2018-07-09T03:36:17.581Z,4.30
2018-07-09T03:37:17.619Z,4.20
2018-07-09T03:38:17.654Z,4.40
2018-07-09T03:39:17.691Z,4.10
2018-07-09T03:40:17.727Z,3.80
2018-07-09T03:41:17.765Z,4.50
2018-07-09T03:42:17.800Z,4.30
2018-07-09T03:43:17.836Z,4.30
2018-07-09T03:44:17.873Z,4.00
2018-07-09T03:45:17.910Z,4.10
2018-07-09T03:46:17.945Z,4.20
2018-07-09T03:47:17.983Z,4.50
2018-07-09T03:48:18.019Z,3.90
2018-07-09T03:49:18.053Z,4.40
2018-07-09T03:50:18.092Z,4.30
2018-07-09T03:51:18.127Z,4.40
2018-07-09T03:52:18.165Z,4.30
2018-07-09T03:53:18.201Z,4.10
2018-07-09T03:54:18.235Z,4.30
2018-07-09T03:55:18.272Z,4.40
2018-07-09T03:56:18.309Z,4.30
2018-07-09T03:57:18.346Z,4.10
2018-07-09T03:58:18.381Z,4.30
2018-07-09T03:59:18.417Z,4.40
2018-07-09T04:00:18.454Z,4.30
2018-07-09T04:01:18.492Z,4.40
2018-07-09T04:02:18.548Z,4.50
2018-07-09T04:03:18.562Z,4.30
2018-07-09T04:04:18.601Z,3.50
2018-07-09T04:05:18.638Z,4.10
2018-07-09T04:06:18.673Z,4.00
2018-07-09T04:07:18.709Z,4.40
2018-07-09T04:08:18.747Z,3.90
2018-07-09T04:09:18.784Z,4.00
2018-07-09T04:10:18.821Z,4.10
2018-07-09T04:11:18.856Z,4.10
2018-07-09T04:12:18.893Z,3.90
2018-07-09T04:13:18.930Z,4.00
2018-07-09T04:14:18.965Z,4.20
2018-07-09T04:15:19.001Z,4.30
2018-07-09T04:16:19.040Z,3.80
2018-07-09T04:17:19.076Z,4.10
2018-07-09T04:18:19.112Z,3.80
2018-07-09T04:19:19.149Z,3.90
2018-07-09T04:20:19.185Z,4.00
2018-07-09T04:21:19.223Z,3.50
2018-07-09T04:22:19.258Z,4.00
2018-07-09T04:23:19.296Z,3.90
2018-07-09T04:24:19.333Z,3.80
2018-07-09T04:25:19.370Z,4.00
2018-07-09T04:26:19.419Z,3.90
2018-07-09T04:27:19.441Z,4.10
2018-07-09T04:28:19.479Z,3.50
2018-07-09T04:29:19.515Z,3.80
2018-07-09T04:30:19.552Z,3.90
2018-07-09T04:31:19.591Z,3.90
2018-07-09T04:32:19.624Z,4.00
2018-07-09T04:33:19.673Z,4.00
2018-07-09T04:34:19.698Z,4.00
2018-07-09T04:35:19.736Z,4.00
2018-07-09T04:36:19.776Z,3.70
2018-07-09T04:37:19.808Z,4.00
2018-07-09T04:38:19.846Z,4.00
2018-07-09T04:39:19.883Z,3.80
2018-07-09T04:40:19.932Z,3.90
2018-07-09T04:41:19.956Z,3.90
2018-07-09T04:42:19.999Z,4.30
2018-07-09T04:43:20.101Z,4.20
2018-07-09T04:44:20.068Z,4.10
2018-07-09T04:45:20.108Z,3.80
2018-07-09T04:46:20.148Z,3.80
2018-07-09T04:47:20.180Z,4.30
2018-07-09T04:48:20.214Z,4.10
2018-07-09T04:49:20.252Z,4.20
2018-07-09T04:50:20.287Z,3.70
2018-07-09T04:51:20.326Z,4.20
2018-07-09T04:52:20.361Z,3.60
2018-07-09T04:53:20.403Z,3.70
2018-07-09T04:54:20.441Z,4.00
2018-07-09T04:55:20.476Z,4.00
2018-07-09T04:56:20.510Z,4.00
2018-07-09T04:57:20.548Z,4.10
2018-07-09T04:58:20.582Z,3.90
2018-07-09T04:59:20.621Z,4.10
2018-07-09T05:00:20.666Z,3.80
2018-07-09T05:01:20.699Z,4.10
2018-07-09T05:02:20.730Z,4.10
2018-07-09T05:03:20.769Z,4.10
2018-07-09T05:04:20.855Z,4.10
2018-07-09T05:05:20.852Z,4.00
2018-07-09T05:06:20.880Z,4.00
2018-07-09T05:07:20.920Z,4.20
2018-07-09T05:08:20.955Z,3.90
2018-07-09T05:09:20.992Z,3.70
2018-07-09T05:10:21.033Z,3.90
2018-07-09T05:11:21.066Z,4.50
2018-07-09T05:12:21.104Z,3.80
2018-07-09T05:13:21.150Z,4.20
2018-07-09T05:14:21.179Z,4.10
2018-07-09T05:15:21.217Z,4.50
2018-07-09T05:16:21.254Z,4.10
2018-07-09T05:17:21.296Z,4.10
2018-07-09T05:18:21.331Z,4.60
2018-07-09T05:19:21.367Z,4.20
2018-07-09T05:20:21.404Z,4.40
2018-07-09T05:21:21.444Z,4.10
2018-07-09T05:22:21.479Z,4.10
2018-07-09T05:23:21.516Z,4.50
2018-07-09T05:24:21.556Z,4.30
2018-07-09T05:25:21.598Z,4.00
2018-07-09T05:26:21.630Z,3.90
2018-07-09T05:27:21.668Z,3.90
2018-07-09T05:28:21.707Z,3.80
2018-07-09T05:29:21.745Z,3.80
2018-07-09T05:30:21.789Z,4.30
2018-07-09T05:31:21.819Z,4.00
2018-07-09T05:32:21.857Z,4.30
2018-07-09T05:33:21.952Z,4.30
2018-07-09T05:34:21.932Z,4.00
2018-07-09T05:35:21.973Z,3.80
2018-07-09T05:36:22.009Z,4.10
2018-07-09T05:37:22.047Z,4.20
2018-07-09T05:38:22.088Z,4.30
2018-07-09T05:39:22.123Z,4.30
2018-07-09T05:40:22.161Z,4.00
2018-07-09T05:41:22.201Z,4.20
2018-07-09T05:42:22.238Z,3.90
2018-07-09T05:43:22.277Z,4.00
2018-07-09T05:44:22.314Z,4.00
2018-07-09T05:45:22.354Z,4.00
2018-07-09T05:46:22.393Z,3.90
2018-07-09T05:47:22.429Z,4.10
2018-07-09T05:48:22.567Z,3.90
2018-07-09T05:49:22.506Z,4.20
2018-07-09T05:50:22.542Z,4.30
2018-07-09T05:51:22.581Z,3.50
2018-07-09T05:52:22.665Z,3.80
2018-07-09T05:53:22.705Z,4.00
2018-07-09T05:54:22.695Z,4.00
2018-07-09T05:55:22.736Z,4.10
2018-07-09T05:56:22.771Z,3.80
2018-07-09T05:57:22.814Z,3.70
2018-07-09T05:58:22.849Z,3.50
2018-07-09T05:59:22.888Z,3.60
2018-07-09T06:00:22.924Z,3.30
2018-07-09T06:01:22.965Z,3.10
2018-07-09T06:02:23.010Z,3.10
2018-07-09T06:03:23.040Z,2.90
2018-07-09T06:04:23.080Z,3.00
2018-07-09T06:05:23.133Z,2.70
2018-07-09T06:06:23.155Z,2.80
2018-07-09T06:07:23.196Z,2.70
2018-07-09T06:08:23.232Z,2.90
2018-07-09T06:09:23.274Z,3.20
2018-07-09T06:10:23.313Z,2.80
2018-07-09T06:11:23.432Z,2.90
2018-07-09T06:12:23.388Z,2.70
2018-07-09T06:13:23.427Z,2.90
2018-07-09T06:14:23.465Z,2.70
2018-07-09T06:15:23.502Z,2.70
2018-07-09T06:16:23.540Z,2.80
2018-07-09T06:17:23.586Z,2.50
2018-07-09T06:18:23.617Z,3.00
2018-07-09T06:19:23.742Z,3.00
2018-07-09T06:20:23.695Z,2.70
2018-07-09T06:21:23.745Z,2.80
2018-07-09T06:22:23.774Z,2.80
2018-07-09T06:23:23.811Z,2.90
2018-07-09T06:24:23.852Z,2.70
2018-07-09T06:25:23.945Z,2.90
2018-07-09T06:26:23.981Z,2.90
2018-07-09T06:27:23.969Z,3.10
2018-07-09T06:28:24.008Z,2.70
2018-07-09T06:29:24.046Z,3.10
2018-07-09T06:30:24.086Z,2.80
2018-07-09T06:31:24.126Z,2.80
2018-07-09T06:32:24.165Z,2.60
2018-07-09T06:33:24.221Z,2.80
2018-07-09T06:34:24.242Z,2.80
2018-07-09T06:35:24.280Z,3.20
2018-07-09T06:36:24.318Z,3.10
2018-07-09T06:37:24.359Z,2.80
2018-07-09T06:38:24.399Z,2.90
2018-07-09T06:39:24.436Z,2.80
2018-07-09T06:40:24.476Z,2.90
2018-07-09T06:41:24.515Z,3.00
2018-07-09T06:42:24.554Z,3.10
2018-07-09T06:43:24.593Z,3.00
2018-07-09T06:44:24.632Z,2.90
2018-07-09T06:45:24.673Z,3.00
2018-07-09T06:46:24.714Z,3.10
2018-07-09T06:47:24.750Z,3.20
2018-07-09T06:48:24.796Z,3.00
2018-07-09T06:49:24.828Z,2.80
2018-07-09T06:50:24.867Z,3.00
2018-07-09T06:51:24.906Z,3.00
2018-07-09T06:52:24.948Z,2.80
2018-07-09T06:53:24.985Z,2.90
2018-07-09T06:54:25.028Z,3.00
2018-07-09T06:55:25.061Z,2.60
2018-07-09T06:56:25.103Z,2.70
2018-07-09T06:57:25.144Z,2.50
2018-07-09T06:58:25.185Z,2.90
2018-07-09T06:59:25.221Z,3.10
2018-07-09T07:00:25.258Z,2.60
2018-07-09T07:01:25.297Z,2.50
2018-07-09T07:02:25.523Z,2.30
2018-07-09T07:03:25.375Z,2.20
2018-07-09T07:04:25.415Z,2.20
2018-07-09T07:05:25.454Z,2.60
2018-07-09T07:06:25.504Z,2.30
2018-07-09T07:07:25.540Z,2.10
2018-07-09T07:08:25.570Z,2.30
2018-07-09T07:09:25.631Z,2.20
2018-07-09T07:10:25.653Z,2.30
2018-07-09T07:11:25.691Z,2.30
2018-07-09T07:12:25.726Z,2.00
2018-07-09T07:13:25.774Z,2.10
2018-07-09T07:14:25.848Z,2.00
2018-07-09T07:15:25.845Z,2.20
2018-07-09T07:16:25.884Z,2.10
2018-07-09T07:17:25.923Z,2.00
2018-07-09T07:18:25.961Z,2.00
2018-07-09T07:19:26.008Z,1.70
2018-07-09T07:20:26.041Z,1.80
2018-07-09T07:21:26.079Z,2.00
2018-07-09T07:22:26.119Z,2.00
2018-07-09T07:23:26.158Z,2.10
2018-07-09T07:24:26.195Z,2.00
2018-07-09T07:25:26.238Z,2.30
2018-07-09T07:26:26.296Z,2.40
2018-07-09T07:27:26.313Z,1.90
2018-07-09T07:28:26.355Z,1.80
2018-07-09T07:29:26.394Z,1.90
2018-07-09T07:30:26.431Z,2.00
2018-07-09T07:31:26.471Z,2.00
2018-07-09T07:32:26.510Z,2.00
2018-07-09T07:33:26.554Z,1.90
2018-07-09T07:34:26.588Z,2.00
2018-07-09T07:35:26.627Z,2.10
2018-07-09T07:36:26.665Z,1.90
2018-07-09T07:37:26.706Z,2.10
2018-07-09T07:38:26.743Z,1.70
2018-07-09T07:39:26.839Z,2.10
2018-07-09T07:40:26.823Z,2.30
2018-07-09T07:41:26.863Z,2.20
2018-07-09T07:42:26.902Z,2.20
2018-07-09T07:43:26.941Z,2.30
2018-07-09T07:44:26.981Z,2.50
2018-07-09T07:45:27.018Z,2.40
2018-07-09T07:46:27.067Z,2.70
2018-07-09T07:47:27.097Z,2.80
2018-07-09T07:48:27.141Z,2.70
2018-07-09T07:49:27.176Z,2.80
2018-07-09T07:50:27.286Z,2.90
2018-07-09T07:51:27.263Z,3.30
2018-07-09T07:52:27.297Z,3.00
2018-07-09T07:53:27.342Z,2.80
2018-07-09T07:54:27.373Z,2.80
2018-07-09T07:55:27.411Z,2.80
2018-07-09T07:56:27.454Z,3.20
2018-07-09T07:57:27.491Z,3.00
2018-07-09T07:58:27.531Z,3.10
2018-07-09T07:59:27.570Z,2.90
2018-07-09T08:00:27.610Z,3.30
2018-07-09T08:01:27.650Z,3.20
2018-07-09T08:02:27.693Z,3.00
2018-07-09T08:03:27.727Z,2.90
2018-07-09T08:04:27.768Z,2.80
2018-07-09T08:05:27.806Z,2.60
2018-07-09T08:06:27.845Z,3.20
2018-07-09T08:07:27.883Z,2.80
2018-07-09T08:08:27.924Z,3.10
2018-07-09T08:09:28.081Z,2.80
2018-07-09T08:10:28.002Z,3.00
2018-07-09T08:11:47.731Z,2.70
2018-07-09T08:13:29.008Z,2.90
2018-07-09T08:14:28.162Z,3.00
2018-07-09T08:15:28.223Z,2.80
2018-07-09T08:16:28.241Z,2.80
2018-07-09T08:17:28.280Z,3.10
2018-07-09T08:18:28.318Z,3.00
2018-07-09T08:19:28.358Z,3.00
2018-07-09T08:20:28.397Z,3.40
2018-07-09T08:21:28.438Z,3.10
2018-07-09T08:22:28.477Z,3.60
2018-07-09T08:23:28.516Z,3.30
2018-07-09T08:24:28.556Z,3.10
2018-07-09T08:25:28.687Z,2.80
2018-07-09T08:26:28.639Z,2.80
2018-07-09T08:27:28.681Z,2.70
2018-07-09T08:28:28.715Z,3.20
2018-07-09T08:29:28.757Z,2.70
2018-07-09T08:30:28.794Z,2.70
2018-07-09T08:31:28.875Z,2.90
2018-07-09T08:32:28.877Z,2.60
2018-07-09T08:33:28.914Z,2.50
2018-07-09T08:34:28.952Z,2.80
2018-07-09T08:35:28.991Z,2.90
2018-07-09T08:36:29.047Z,2.60
2018-07-09T08:37:29.072Z,2.80
2018-07-09T08:38:29.110Z,3.00
2018-07-09T08:39:29.151Z,3.00
2018-07-09T08:40:29.189Z,2.90
2018-07-09T08:41:29.231Z,2.80
2018-07-09T08:42:29.268Z,3.20
2018-07-09T08:43:29.308Z,3.10
2018-07-09T08:44:29.348Z,3.20
2018-07-09T08:45:29.389Z,3.10
2018-07-09T08:46:29.427Z,2.90
2018-07-09T08:47:29.574Z,3.20
2018-07-09T08:48:29.508Z,3.30
2018-07-09T08:49:29.562Z,3.00
2018-07-09T08:50:29.587Z,3.00
2018-07-09T08:51:29.628Z,3.20
2018-07-09T08:52:29.669Z,3.00
2018-07-09T08:53:29.707Z,3.10
2018-07-09T08:54:29.752Z,3.00
2018-07-09T08:55:29.787Z,2.90
2018-07-09T08:56:29.828Z,2.90
2018-07-09T08:57:29.868Z,2.80
2018-07-09T08:58:29.913Z,2.90
2018-07-09T08:59:29.947Z,3.00
2018-07-09T09:00:29.986Z,3.00
2018-07-09T09:01:30.031Z,2.80
2018-07-09T09:02:30.066Z,3.10
2018-07-09T09:03:30.106Z,2.90
2018-07-09T09:04:30.148Z,2.90
2018-07-09T09:05:30.188Z,3.10
2018-07-09T09:06:30.228Z,3.00
2018-07-09T09:07:30.272Z,3.10
2018-07-09T09:08:30.303Z,2.80
2018-07-09T09:09:30.345Z,3.00
2018-07-09T09:10:30.447Z,3.00
2018-07-09T09:11:30.427Z,3.00
2018-07-09T09:12:30.465Z,2.70
2018-07-09T09:13:30.507Z,3.00
2018-07-09T09:14:30.544Z,3.20
2018-07-09T09:15:30.585Z,2.70
2018-07-09T09:16:30.638Z,3.20
2018-07-09T09:17:30.670Z,3.50
2018-07-09T09:18:30.706Z,3.00
2018-07-09T09:19:30.745Z,3.10
2018-07-09T09:20:30.784Z,3.10
2018-07-09T09:21:30.827Z,3.00
2018-07-09T09:22:30.867Z,3.30
2018-07-09T09:23:30.906Z,3.70
2018-07-09T09:24:30.945Z,3.40
2018-07-09T09:25:31.004Z,3.00
2018-07-09T09:26:31.024Z,3.20
2018-07-09T09:27:31.065Z,3.10
2018-07-09T09:28:31.106Z,3.00
2018-07-09T09:29:31.145Z,2.90
2018-07-09T09:30:31.237Z,3.10
2018-07-09T09:31:31.325Z,3.00
2018-07-09T09:32:31.264Z,3.10
2018-07-09T09:33:31.305Z,3.30
2018-07-09T09:34:31.353Z,3.20
2018-07-09T09:35:31.386Z,3.00
2018-07-09T09:36:31.430Z,3.10
2018-07-09T09:37:31.490Z,3.10
2018-07-09T09:38:31.503Z,3.30
2018-07-09T09:39:31.545Z,2.60
2018-07-09T09:40:31.586Z,2.60
2018-07-09T09:41:31.627Z,2.90
2018-07-09T09:42:31.665Z,3.10
2018-07-09T09:43:31.706Z,2.90
2018-07-09T09:44:31.747Z,3.20
2018-07-09T09:45:31.787Z,2.80
2018-07-09T09:46:31.827Z,2.90
2018-07-09T09:47:31.868Z,2.80
2018-07-09T09:48:31.908Z,3.00
2018-07-09T09:49:31.948Z,3.10
2018-07-09T09:50:31.988Z,3.50
2018-07-09T09:51:32.036Z,2.60
2018-07-09T09:52:32.070Z,2.70
2018-07-09T09:53:32.111Z,7.80
2018-07-09T09:54:32.150Z,4.10
2018-07-09T09:55:32.191Z,3.30
2018-07-09T09:56:32.232Z,2.90
2018-07-09T09:57:32.276Z,3.90
2018-07-09T09:58:32.314Z,2.40
2018-07-09T09:59:32.353Z,2.40
2018-07-09T10:00:32.399Z,2.20
2018-07-09T10:01:32.436Z,2.50
2018-07-09T10:02:32.484Z,2.40
2018-07-09T10:03:32.514Z,2.10
2018-07-09T10:04:32.557Z,2.60
2018-07-09T10:05:32.597Z,2.50
2018-07-09T10:06:32.683Z,2.40
2018-07-09T10:07:32.677Z,2.60
2018-07-09T10:08:32.738Z,2.60
2018-07-09T10:09:32.758Z,5.40
2018-07-09T10:10:32.797Z,2.70
2018-07-09T10:11:32.836Z,2.40
2018-07-09T10:12:32.879Z,2.40
2018-07-09T10:13:32.919Z,2.30
2018-07-09T10:14:32.959Z,2.10
2018-07-09T10:15:33.001Z,2.50
2018-07-09T10:16:33.045Z,2.50
2018-07-09T10:17:33.082Z,2.30
2018-07-09T10:18:33.122Z,2.30
2018-07-09T10:19:33.163Z,2.60
2018-07-09T10:20:33.203Z,2.30
2018-07-09T10:21:33.253Z,2.40
2018-07-09T10:22:33.312Z,2.50
2018-07-09T10:23:33.393Z,2.20
2018-07-09T10:24:33.369Z,2.20
2018-07-09T10:25:33.412Z,2.40
2018-07-09T10:26:33.448Z,2.20
2018-07-09T10:27:33.490Z,2.30
2018-07-09T10:28:33.530Z,2.40
2018-07-09T10:29:33.572Z,2.20
2018-07-09T10:30:33.669Z,2.50
2018-07-09T10:31:33.654Z,2.10
2018-07-09T10:32:33.694Z,2.00
2018-07-09T10:33:33.735Z,2.40
2018-07-09T10:34:33.774Z,2.50
2018-07-09T10:35:33.815Z,2.30
2018-07-09T10:36:33.866Z,2.40
2018-07-09T10:37:33.898Z,2.40
2018-07-09T10:38:33.937Z,2.30
2018-07-09T10:39:33.997Z,2.40
2018-07-09T10:40:34.022Z,2.30
2018-07-09T10:41:34.062Z,2.10
2018-07-09T10:42:34.101Z,1.80
2018-07-09T10:43:34.142Z,2.10
2018-07-09T10:44:34.183Z,2.10
2018-07-09T10:45:34.234Z,2.30
2018-07-09T10:46:34.267Z,2.50
2018-07-09T10:47:34.314Z,2.40
2018-07-09T10:48:34.347Z,2.50
2018-07-09T10:49:34.398Z,2.60
2018-07-09T10:50:34.429Z,2.50
2018-07-09T10:51:34.471Z,2.60
2018-07-09T10:52:34.512Z,2.70
2018-07-09T10:53:34.553Z,2.50
2018-07-09T10:54:34.595Z,2.90
2018-07-09T10:55:34.635Z,2.90
2018-07-09T10:56:34.725Z,2.50
2018-07-09T10:57:34.717Z,2.80
2018-07-09T10:58:34.758Z,2.70
2018-07-09T10:59:34.801Z,2.50
2018-07-09T11:00:34.841Z,2.40
2018-07-09T11:01:34.889Z,2.30
2018-07-09T11:02:34.922Z,2.30
2018-07-09T11:03:34.963Z,2.30
2018-07-09T11:04:35.008Z,3.60
2018-07-09T11:05:35.046Z,2.80
2018-07-09T11:07:35.128Z,2.70
2018-07-09T11:08:35.173Z,2.30
2018-07-09T11:09:35.222Z,2.30
2018-07-09T11:10:35.252Z,2.40
2018-07-09T11:11:35.303Z,2.60
2018-07-09T11:12:35.338Z,2.40
2018-07-09T11:13:35.385Z,2.50
2018-07-09T11:14:35.418Z,2.40
2018-07-09T11:15:35.486Z,2.50
2018-07-09T11:16:35.501Z,2.60
2018-07-09T11:17:35.545Z,2.60
2018-07-09T11:18:35.582Z,2.90
2018-07-09T11:19:35.626Z,2.40
2018-07-09T11:20:35.667Z,2.70
2018-07-09T11:21:35.725Z,2.70
2018-07-09T11:22:35.748Z,2.50
2018-07-09T11:23:35.796Z,2.40
2018-07-09T11:24:35.832Z,2.50
2018-07-09T11:25:35.876Z,2.70
2018-07-09T11:26:35.915Z,2.40
2018-07-09T11:27:35.959Z,2.90
2018-07-09T11:28:36.006Z,2.60
2018-07-09T11:29:36.042Z,2.70
2018-07-09T11:30:36.083Z,2.60
2018-07-09T11:31:36.123Z,2.50
2018-07-09T11:32:36.166Z,2.50
2018-07-09T11:33:36.207Z,2.50
2018-07-09T11:34:36.248Z,2.60
2018-07-09T11:35:36.289Z,2.60
2018-07-09T11:36:36.331Z,2.60
2018-07-09T11:37:36.380Z,2.70
2018-07-09T11:38:36.416Z,2.90
2018-07-09T11:39:36.455Z,2.60
2018-07-09T11:40:36.498Z,2.60
2018-07-09T11:41:36.539Z,2.90
2018-07-09T11:42:36.579Z,2.80
2018-07-09T11:43:36.630Z,2.80
2018-07-09T11:44:36.929Z,2.70
2018-07-09T11:45:36.716Z,2.40
2018-07-09T11:46:36.749Z,2.70
2018-07-09T11:47:36.800Z,2.70
2018-07-09T11:48:36.832Z,2.80
2018-07-09T11:49:36.875Z,3.00
2018-07-09T11:50:36.917Z,2.70
2018-07-09T11:51:36.958Z,2.50
2018-07-09T11:52:37.000Z,2.50
2018-07-09T11:53:37.041Z,2.70
2018-07-09T11:54:37.085Z,2.80
2018-07-09T11:55:37.129Z,2.50
2018-07-09T11:56:37.172Z,3.00
2018-07-09T11:57:37.212Z,2.90
2018-07-09T11:58:37.294Z,2.50
2018-07-09T11:59:37.309Z,2.80
2018-07-09T12:00:37.338Z,2.70
2018-07-09T12:01:37.388Z,2.80
2018-07-09T12:02:37.419Z,2.90
2018-07-09T12:03:37.468Z,2.80
2018-07-09T12:04:37.508Z,2.50
2018-07-09T12:05:37.548Z,2.80
2018-07-09T12:06:37.599Z,2.50
2018-07-09T12:07:37.633Z,2.60
2018-07-09T12:08:37.675Z,2.70
2018-07-09T12:09:37.721Z,3.10
2018-07-09T12:10:37.757Z,2.40
2018-07-09T12:11:37.809Z,2.50
2018-07-09T12:12:37.851Z,2.50
2018-07-09T12:13:37.887Z,2.60
2018-07-09T12:14:37.937Z,2.80
2018-07-09T12:15:37.972Z,2.70
2018-07-09T12:16:38.013Z,2.80
2018-07-09T12:17:38.057Z,2.80
2018-07-09T12:18:38.101Z,2.90
2018-07-09T12:19:38.142Z,2.70
2018-07-09T12:20:38.187Z,2.60
2018-07-09T12:21:38.261Z,2.60
2018-07-09T12:22:38.270Z,2.80
2018-07-09T12:23:38.315Z,2.40
2018-07-09T12:24:38.358Z,2.20
2018-07-09T12:25:38.402Z,2.40
2018-07-09T12:26:38.444Z,2.60
2018-07-09T12:27:38.491Z,2.50
2018-07-09T12:28:38.581Z,2.70
2018-07-09T12:29:38.574Z,2.60
2018-07-09T12:30:38.617Z,2.60
2018-07-09T12:31:38.660Z,2.60
2018-07-09T12:32:38.708Z,2.60
2018-07-09T12:33:38.746Z,2.10
2018-07-09T12:34:38.791Z,2.50
2018-07-09T12:35:38.832Z,2.70
2018-07-09T12:36:38.876Z,2.70
2018-07-09T12:37:38.921Z,2.60
2018-07-09T12:38:38.966Z,2.40
2018-07-09T12:39:39.015Z,2.40
2018-07-09T12:40:39.052Z,2.60
2018-07-09T12:41:39.099Z,2.60
2018-07-09T12:42:39.139Z,2.40
2018-07-09T12:43:39.185Z,2.10
2018-07-09T12:44:39.227Z,2.30
2018-07-09T12:45:39.271Z,2.40
2018-07-09T12:46:39.313Z,2.80
2018-07-09T12:47:39.373Z,2.40
2018-07-09T12:48:39.406Z,2.40
2018-07-09T12:49:39.567Z,2.50
2018-07-09T12:50:39.490Z,2.50
2018-07-09T12:51:39.542Z,2.50
2018-07-09T12:52:39.592Z,2.40
2018-07-09T12:53:39.624Z,2.40
2018-07-09T12:54:39.670Z,2.20
2018-07-09T12:55:39.715Z,2.40
2018-07-09T12:56:39.782Z,2.50
2018-07-09T12:57:39.802Z,2.50
2018-07-09T12:58:39.841Z,2.30
2018-07-09T12:59:39.887Z,2.40
2018-07-09T13:00:39.930Z,2.10
2018-07-09T13:01:40.033Z,2.40
2018-07-09T13:02:40.019Z,2.10
2018-07-09T13:03:40.065Z,2.20
2018-07-09T13:04:40.106Z,2.20
2018-07-09T13:05:40.151Z,2.00
2018-07-09T13:06:40.194Z,2.10
2018-07-09T13:07:40.241Z,2.10
2018-07-09T13:08:40.288Z,2.40
2018-07-09T13:09:40.328Z,2.20
2018-07-09T13:10:40.374Z,2.20
2018-07-09T13:11:40.416Z,2.10
2018-07-09T13:12:40.462Z,2.10
2018-07-09T13:13:40.504Z,2.20
2018-07-09T13:14:40.551Z,2.20
2018-07-09T13:15:40.597Z,2.00
2018-07-09T13:16:40.638Z,2.00
2018-07-09T13:17:40.683Z,1.90
2018-07-09T13:18:40.727Z,1.80
2018-07-09T13:19:40.772Z,2.00
2018-07-09T13:20:40.816Z,1.60